Time;durP1;ratioP1;P1;durP2;ratioP2;P2;SDS_P1;SDS_P2;PMS_P1;PMS_P2;Temp;Humidity;BMP_temperature;BMP_pressure;BME280_temperature;BME280_humidity;BME280_pressure;Samples;Min_cycle;Max_cycle;Signal;HPM_P1;HPM_P2
2021/12/07 00:01:34;;;;;;;13.23;5.28;;;;;;;;;;6215380;23;20476;-73
2021/12/07 00:04:01;;;;;;;7.63;4.75;;;;;;;;;;6214689;23;20171;-73
2021/12/07 00:06:29;;;;;;;8.70;4.85;;;;;;;;;;6215326;23;20186;-73
2021/12/07 00:08:56;;;;;;;5.88;4.47;;;;;;;;;;6214991;23;20170;-73
2021/12/07 00:11:24;;;;;;;7.30;4.75;;;;;;;;;;6215500;23;20166;-73
2021/12/07 00:13:52;;;;;;;7.97;4.05;;;;;;;;;;6215778;23;20470;-73
2021/12/07 00:16:20;;;;;;;8.05;5.35;;;;;;;;;;6215828;23;20500;-73
2021/12/07 00:18:50;;;;;;;6.40;4.10;;;;;;;;;;6215415;23;20191;-72
2021/12/07 00:21:18;;;;;;;7.25;3.95;;;;;;;;;;6215613;23;20623;-73
2021/12/07 00:23:47;;;;;;;8.77;4.13;;;;;;;;;;6215567;23;20167;-73
2021/12/07 00:26:14;;;;;;;5.90;4.43;;;;;;;;;;6215764;23;20230;-73
2021/12/07 00:28:43;;;;;;;4.97;4.25;;;;;;;;;;6215152;23;20614;-73
2021/12/07 00:31:15;;;;;;;5.80;3.60;;;;;;;;;;6214945;23;20195;-73
2021/12/07 00:33:45;;;;;;;4.65;3.20;;;;;;;;;;6215194;23;20266;-72
2021/12/07 00:36:14;;;;;;;7.18;3.28;;;;;;;;;;6215400;23;20653;-73
2021/12/07 00:38:42;;;;;;;4.10;2.80;;;;;;;;;;6215401;23;20503;-73
2021/12/07 00:41:09;;;;;;;6.07;2.60;;;;;;;;;;6215548;23;20163;-73
2021/12/07 00:43:37;;;;;;;5.47;2.90;;;;;;;;;;6214895;23;20258;-73
2021/12/07 00:46:08;;;;;;;4.65;2.90;;;;;;;;;;6215255;23;20163;-73
2021/12/07 00:48:36;;;;;;;7.30;3.45;;;;;;;;;;6215543;23;20155;-73
2021/12/07 00:51:03;;;;;;;5.10;3.30;;;;;;;;;;6214727;23;20167;-73
2021/12/07 00:53:32;;;;;;;5.15;3.60;;;;;;;;;;6215569;23;20171;-73
2021/12/07 00:56:02;;;;;;;7.40;4.00;;;;;;;;;;6214760;23;20166;-73
2021/12/07 00:58:31;;;;;;;5.50;3.70;;;;;;;;;;6215084;23;20174;-73
2021/12/07 01:01:01;;;;;;;4.30;2.70;;;;;;;;;;6214784;23;20201;-73
2021/12/07 01:03:31;;;;;;;6.80;3.45;;;;;;;;;;6215001;23;20151;-73
2021/12/07 01:06:12;;;;;;;6.85;3.78;;;;;;;;;;6214770;23;20159;-73
2021/12/07 01:09:11;;;;;;;5.57;3.50;;;;;;;;;;6215573;23;20222;-73
2021/12/07 01:25:45;;;;;;;4.30;2.90;;;;;;;;;;6215189;23;20173;-73
2021/12/07 01:28:21;;;;;;;4.60;3.28;;;;;;;;;;6215146;23;20171;-73
2021/12/07 01:30:54;;;;;;;5.50;3.05;;;;;;;;;;6214567;23;20201;-72
2021/12/07 01:33:46;;;;;;;5.07;3.67;;;;;;;;;;6214469;23;20242;-73
2021/12/07 01:36:34;;;;;;;5.80;2.92;;;;;;;;;;6215177;23;20171;-73
2021/12/07 01:44:50;;;;;;;5.03;3.30;;;;;;;;;;6212997;23;20159;-73
2021/12/07 01:53:04;;;;;;;5.07;3.10;;;;;;;;;;6151768;23;20229;-74
2021/12/07 02:01:06;;;;;;;4.05;2.13;;;;;;;;;;6214456;23;20198;-73
2021/12/07 02:03:34;;;;;;;3.58;2.20;;;;;;;;;;6214204;23;20201;-73
2021/12/07 02:06:01;;;;;;;7.30;2.42;;;;;;;;;;6214212;23;20221;-74
2021/12/07 02:08:29;;;;;;;2.78;1.95;;;;;;;;;;6214509;23;20167;-73
2021/12/07 02:11:00;;;;;;;2.53;1.52;;;;;;;;;;6214825;23;20249;-74
2021/12/07 02:16:16;;;;;;;2.65;1.52;;;;;;;;;;6214567;23;20234;-73
2021/12/07 02:18:43;;;;;;;2.55;1.63;;;;;;;;;;6214706;23;20167;-73
2021/12/07 02:21:16;;;;;;;3.50;1.63;;;;;;;;;;6213975;23;20581;-74
2021/12/07 02:23:44;;;;;;;2.00;1.20;;;;;;;;;;6214076;23;20170;-73
2021/12/07 02:26:11;;;;;;;6.13;1.13;;;;;;;;;;6214087;23;20249;-74
2021/12/07 02:28:40;;;;;;;3.60;1.88;;;;;;;;;;6214550;23;20171;-73
2021/12/07 02:31:07;;;;;;;4.90;1.65;;;;;;;;;;6214370;23;20716;-73
2021/12/07 02:33:35;;;;;;;4.53;1.52;;;;;;;;;;6214297;23;20184;-73
2021/12/07 02:36:03;;;;;;;2.50;1.20;;;;;;;;;;6214535;23;20622;-73
2021/12/07 02:38:32;;;;;;;2.40;1.88;;;;;;;;;;6214229;23;20170;-73
2021/12/07 02:41:00;;;;;;;2.63;1.20;;;;;;;;;;6214791;23;20217;-73
2021/12/07 02:43:27;;;;;;;2.45;1.10;;;;;;;;;;6214266;23;20213;-73
2021/12/07 02:45:55;;;;;;;4.70;1.23;;;;;;;;;;6214589;23;20485;-73
2021/12/07 02:48:23;;;;;;;2.38;1.00;;;;;;;;;;6214933;23;20236;-74
2021/12/07 02:50:51;;;;;;;2.25;1.40;;;;;;;;;;6214889;23;20194;-75
2021/12/07 02:53:21;;;;;;;2.58;1.70;;;;;;;;;;6214222;23;20623;-72
2021/12/07 02:55:50;;;;;;;2.67;1.25;;;;;;;;;;6214873;23;20170;-73
2021/12/07 02:58:18;;;;;;;2.60;1.20;;;;;;;;;;6214594;23;20508;-73
2021/12/07 03:00:52;;;;;;;4.93;1.23;;;;;;;;;;6214505;23;20187;-73
2021/12/07 03:03:20;;;;;;;2.58;1.35;;;;;;;;;;6214336;23;20154;-73
2021/12/07 03:05:56;;;;;;;2.95;1.33;;;;;;;;;;6214348;23;20686;-73
2021/12/07 03:09:06;;;;;;;2.75;1.40;;;;;;;;;;6215834;23;20230;-73
2021/12/07 03:28:16;;;;;;;2.10;1.10;;;;;;;;;;6198603;23;20193;-73
2021/12/07 03:30:43;;;;;;;2.40;1.38;;;;;;;;;;6215443;23;20230;-73
2021/12/07 03:33:11;;;;;;;2.35;1.00;;;;;;;;;;6215938;23;20214;-72
2021/12/07 03:35:39;;;;;;;2.70;1.40;;;;;;;;;;6215958;23;20174;-73
2021/12/07 03:38:07;;;;;;;1.80;0.90;;;;;;;;;;6215926;23;20169;-73
2021/12/07 03:40:35;;;;;;;2.60;0.90;;;;;;;;;;6215871;23;20213;-73
2021/12/07 03:43:04;;;;;;;2.25;1.27;;;;;;;;;;6215737;23;20214;-73
2021/12/07 03:45:33;;;;;;;2.15;1.33;;;;;;;;;;6215982;23;20485;-73
2021/12/07 03:48:01;;;;;;;2.13;1.13;;;;;;;;;;6215502;23;20171;-73
2021/12/07 03:50:29;;;;;;;2.00;0.95;;;;;;;;;;6215317;23;20621;-73
2021/12/07 03:52:56;;;;;;;1.88;1.02;;;;;;;;;;6216106;23;20486;-74
2021/12/07 03:55:24;;;;;;;2.17;1.10;;;;;;;;;;6215926;23;20186;-74
2021/12/07 03:57:51;;;;;;;1.75;0.90;;;;;;;;;;6215825;23;20606;-73
2021/12/07 04:00:20;;;;;;;3.10;1.15;;;;;;;;;;6215382;23;20538;-73
2021/12/07 04:02:51;;;;;;;2.40;1.33;;;;;;;;;;6215990;23;20167;-73
2021/12/07 04:05:20;;;;;;;2.63;1.35;;;;;;;;;;6216295;23;20152;-73
2021/12/07 04:07:48;;;;;;;2.45;1.33;;;;;;;;;;6216788;23;20229;-73
2021/12/07 04:10:18;;;;;;;1.88;0.90;;;;;;;;;;6215433;23;20626;-73
2021/12/07 04:12:45;;;;;;;1.63;0.88;;;;;;;;;;6216312;23;20238;-73
2021/12/07 04:15:15;;;;;;;2.70;1.08;;;;;;;;;;6215506;23;20163;-73
2021/12/07 04:17:43;;;;;;;2.83;1.42;;;;;;;;;;6215672;23;20177;-73
2021/12/07 04:20:13;;;;;;;1.50;0.80;;;;;;;;;;6212427;23;20202;-73
2021/12/07 04:22:41;;;;;;;3.13;1.40;;;;;;;;;;6216224;23;20229;-74
2021/12/07 04:25:11;;;;;;;2.05;0.90;;;;;;;;;;6215600;23;20225;-73
2021/12/07 04:27:39;;;;;;;1.83;0.85;;;;;;;;;;6215938;23;20276;-73
2021/12/07 04:30:10;;;;;;;2.00;1.02;;;;;;;;;;6215598;23;20207;-73
2021/12/07 04:32:37;;;;;;;2.22;1.00;;;;;;;;;;6215375;23;20670;-73
2021/12/07 04:35:06;;;;;;;2.40;1.15;;;;;;;;;;6215961;23;20167;-73
2021/12/07 04:37:35;;;;;;;2.78;1.20;;;;;;;;;;6214676;23;20242;-73
2021/12/07 04:40:03;;;;;;;1.73;1.00;;;;;;;;;;6215980;23;20229;-73
2021/12/07 04:42:31;;;;;;;2.22;1.30;;;;;;;;;;6215491;23;20167;-76
2021/12/07 04:45:03;;;;;;;2.13;1.10;;;;;;;;;;6215613;23;20174;-72
2021/12/07 04:47:39;;;;;;;1.85;0.80;;;;;;;;;;6215216;23;20637;-74
2021/12/07 04:50:38;;;;;;;3.15;1.30;;;;;;;;;;6216041;23;20245;-73
2021/12/07 04:58:38;;;;;;;3.10;1.40;;;;;;;;;;6215064;23;20205;-73
2021/12/07 05:01:10;;;;;;;3.15;1.30;;;;;;;;;;6215328;23;20186;-73
2021/12/07 05:03:38;;;;;;;4.05;1.90;;;;;;;;;;6215628;23;20178;-73
2021/12/07 05:06:08;;;;;;;2.40;1.30;;;;;;;;;;6215432;23;20246;-73
2021/12/07 05:08:41;;;;;;;2.10;1.00;;;;;;;;;;6214791;23;20198;-73
2021/12/07 05:14:00;;;;;;;1.50;0.70;;;;;;;;;;6213912;23;20606;-73
2021/12/07 05:16:50;;;;;;;6.28;0.60;;;;;;;;;;6215945;23;20159;-73
2021/12/07 05:25:06;;;;;;;1.80;0.70;;;;;;;;;;6215559;23;20154;-73
2021/12/07 05:38:33;;;;;;;1.40;0.70;;;;;;;;;;6214801;23;20155;-73
2021/12/07 05:41:03;;;;;;;1.50;0.70;;;;;;;;;;6214167;23;20222;-73
2021/12/07 05:43:32;;;;;;;1.50;0.50;;;;;;;;;;6215405;23;20177;-73
2021/12/07 05:45:59;;;;;;;1.60;0.80;;;;;;;;;;6214461;23;20163;-73
2021/12/07 05:48:27;;;;;;;1.50;0.60;;;;;;;;;;6214876;23;20162;-73
2021/12/07 05:50:54;;;;;;;5.97;1.00;;;;;;;;;;6215082;23;20618;-73
2021/12/07 05:53:22;;;;;;;1.40;0.60;;;;;;;;;;6215368;23;20533;-73
2021/12/07 05:55:50;;;;;;;1.95;1.00;;;;;;;;;;6214712;23;20197;-72
2021/12/07 05:58:20;;;;;;;1.75;0.82;;;;;;;;;;6215063;23;20178;-73
2021/12/07 06:00:50;;;;;;;1.60;0.70;;;;;;;;;;6214821;23;20182;-74
2021/12/07 06:03:17;;;;;;;1.70;0.80;;;;;;;;;;6215643;23;20245;-73
2021/12/07 06:05:45;;;;;;;1.50;0.60;;;;;;;;;;6214856;23;20185;-73
2021/12/07 06:08:13;;;;;;;1.50;0.60;;;;;;;;;;6214835;23;20237;-73
2021/12/07 06:10:41;;;;;;;1.50;0.70;;;;;;;;;;6211800;23;20170;-73
2021/12/07 06:13:08;;;;;;;2.00;0.88;;;;;;;;;;6214602;23;20169;-73
2021/12/07 06:15:39;;;;;;;1.80;0.80;;;;;;;;;;6213791;23;20198;-75
2021/12/07 06:18:07;;;;;;;2.10;0.88;;;;;;;;;;6214393;23;20610;-73
2021/12/07 06:20:40;;;;;;;1.67;0.90;;;;;;;;;;6213876;23;20186;-73
2021/12/07 06:23:09;;;;;;;1.70;0.88;;;;;;;;;;6214565;23;20193;-73
2021/12/07 06:25:36;;;;;;;2.15;1.00;;;;;;;;;;6213591;23;20542;-73
2021/12/07 06:28:04;;;;;;;1.98;0.82;;;;;;;;;;6214094;23;20598;-73
2021/12/07 06:30:33;;;;;;;1.67;0.70;;;;;;;;;;6213545;23;20662;-75
2021/12/07 06:33:02;;;;;;;1.50;0.70;;;;;;;;;;6213744;23;20167;-73
2021/12/07 06:35:30;;;;;;;1.98;0.80;;;;;;;;;;6214355;23;20559;-73
2021/12/07 06:37:59;;;;;;;4.25;1.40;;;;;;;;;;6214021;23;20167;-73
2021/12/07 06:40:27;;;;;;;3.20;1.10;;;;;;;;;;6213784;23;20251;-74
2021/12/07 06:42:59;;;;;;;2.17;1.02;;;;;;;;;;6215801;23;20626;-73
2021/12/07 06:45:28;;;;;;;1.73;0.70;;;;;;;;;;6216027;23;20598;-73
2021/12/07 06:47:56;;;;;;;1.88;1.00;;;;;;;;;;6215907;23;20163;-74
2021/12/07 06:50:29;;;;;;;1.70;0.93;;;;;;;;;;6215744;23;20246;-73
2021/12/07 06:52:58;;;;;;;2.00;0.93;;;;;;;;;;6216209;23;20155;-73
2021/12/07 06:55:28;;;;;;;2.10;1.10;;;;;;;;;;6213956;23;20217;-75
2021/12/07 06:57:56;;;;;;;2.17;1.50;;;;;;;;;;6215132;23;20249;-73
2021/12/07 07:00:24;;;;;;;2.20;1.20;;;;;;;;;;6215101;23;20173;-74
2021/12/07 07:02:51;;;;;;;2.60;1.00;;;;;;;;;;6215318;23;20243;-79
2021/12/07 07:05:19;;;;;;;5.55;1.20;;;;;;;;;;6214403;23;20552;-73
2021/12/07 07:07:48;;;;;;;1.80;0.90;;;;;;;;;;6215770;23;20198;-73
2021/12/07 07:10:17;;;;;;;1.90;1.10;;;;;;;;;;6216185;23;20170;-75
2021/12/07 07:12:45;;;;;;;3.38;1.00;;;;;;;;;;6216081;23;20214;-73
2021/12/07 07:15:12;;;;;;;2.78;1.70;;;;;;;;;;6215523;23;20254;-74
2021/12/07 07:17:41;;;;;;;3.03;1.52;;;;;;;;;;6215658;23;20167;-75
2021/12/07 07:20:11;;;;;;;2.33;0.93;;;;;;;;;;6215349;23;20170;-73
2021/12/07 07:22:38;;;;;;;1.90;0.90;;;;;;;;;;6215329;23;20194;-73
2021/12/07 07:25:08;;;;;;;2.67;1.48;;;;;;;;;;6215403;23;20174;-74
2021/12/07 07:27:39;;;;;;;2.25;1.10;;;;;;;;;;6215213;23;20167;-74
2021/12/07 07:30:07;;;;;;;2.22;1.25;;;;;;;;;;6214948;23;20622;-73
2021/12/07 07:32:35;;;;;;;3.22;1.40;;;;;;;;;;6215709;23;20243;-73
2021/12/07 07:35:04;;;;;;;3.50;1.05;;;;;;;;;;6215387;23;20171;-75
2021/12/07 07:37:31;;;;;;;2.25;1.40;;;;;;;;;;6215829;23;20480;-73
2021/12/07 07:39:59;;;;;;;2.08;1.08;;;;;;;;;;6215515;23;20171;-72
2021/12/07 07:42:29;;;;;;;3.08;1.23;;;;;;;;;;6214725;23;20194;-73
2021/12/07 07:44:56;;;;;;;1.80;1.20;;;;;;;;;;6215283;23;20480;-73
2021/12/07 07:47:24;;;;;;;2.60;1.02;;;;;;;;;;6216238;23;20167;-73
2021/12/07 07:49:51;;;;;;;3.05;1.35;;;;;;;;;;6214474;23;20175;-73
2021/12/07 07:52:18;;;;;;;1.80;1.20;;;;;;;;;;6215380;23;20228;-75
2021/12/07 07:54:45;;;;;;;1.90;1.00;;;;;;;;;;6215021;23;20561;-73
2021/12/07 07:57:12;;;;;;;2.47;1.50;;;;;;;;;;6215281;23;20167;-74
2021/12/07 07:59:43;;;;;;;2.63;1.60;;;;;;;;;;6214852;23;20198;-73
2021/12/07 08:02:11;;;;;;;3.55;1.30;;;;;;;;;;6214708;23;20650;-73
2021/12/07 08:04:38;;;;;;;3.05;1.60;;;;;;;;;;6215107;23;20177;-74
2021/12/07 08:07:06;;;;;;;1.92;1.40;;;;;;;;;;6215201;23;20652;-73
2021/12/07 08:09:36;;;;;;;2.83;2.22;;;;;;;;;;6215328;23;20166;-73
2021/12/07 08:12:06;;;;;;;2.17;1.23;;;;;;;;;;6215573;23;20155;-73
2021/12/07 08:14:33;;;;;;;2.95;1.35;;;;;;;;;;6214682;23;20645;-73
2021/12/07 08:17:04;;;;;;;5.57;3.33;;;;;;;;;;6215288;23;20167;-73
2021/12/07 08:19:32;;;;;;;3.20;2.13;;;;;;;;;;6215428;23;20163;-73
2021/12/07 08:22:04;;;;;;;2.88;1.50;;;;;;;;;;6198827;23;20358;-75
2021/12/07 08:24:51;;;;;;;2.05;1.00;;;;;;;;;;6184004;23;20730;-79
2021/12/07 08:27:20;;;;;;;4.38;1.42;;;;;;;;;;6205218;23;20151;-73
2021/12/07 08:29:54;;;;;;;3.88;1.48;;;;;;;;;;6213411;23;20242;-74
2021/12/07 08:33:03;;;;;;;2.83;1.40;;;;;;;;;;6215017;23;20155;-73
2021/12/07 08:35:59;;;;;;;10.48;1.77;;;;;;;;;;6213761;23;20190;-74
2021/12/07 08:41:44;;;;;;;2.03;1.10;;;;;;;;;;6212567;23;20517;-74
2021/12/07 08:44:46;;;;;;;2.85;1.55;;;;;;;;;;6212821;23;20163;-73
2021/12/07 08:47:14;;;;;;;2.45;1.50;;;;;;;;;;6204240;23;20246;-73
2021/12/07 08:49:42;;;;;;;2.10;1.15;;;;;;;;;;6214501;23;20174;-73
2021/12/07 08:52:11;;;;;;;3.38;1.50;;;;;;;;;;6214596;23;20178;-73
2021/12/07 09:00:05;;;;;;;3.13;1.45;;;;;;;;;;6214556;23;20213;-72
2021/12/07 09:02:33;;;;;;;3.13;1.67;;;;;;;;;;6214734;23;20528;-73
2021/12/07 09:05:04;;;;;;;4.68;3.30;;;;;;;;;;6213969;23;20225;-75
2021/12/07 09:07:34;;;;;;;6.55;3.22;;;;;;;;;;6215245;23;20158;-73
2021/12/07 09:10:02;;;;;;;4.40;2.00;;;;;;;;;;6213472;23;20229;-73
2021/12/07 09:12:32;;;;;;;3.95;1.40;;;;;;;;;;6214448;23;20167;-74
2021/12/07 09:15:00;;;;;;;2.55;1.60;;;;;;;;;;6214976;23;20155;-73
2021/12/07 09:17:29;;;;;;;2.40;1.55;;;;;;;;;;6214548;23;20170;-74
2021/12/07 09:19:56;;;;;;;2.38;1.42;;;;;;;;;;6214082;23;20162;-74
2021/12/07 09:22:23;;;;;;;3.45;1.58;;;;;;;;;;6213614;23;20194;-74
2021/12/07 09:24:54;;;;;;;3.15;1.65;;;;;;;;;;6214897;23;20246;-73
2021/12/07 09:27:21;;;;;;;2.45;1.30;;;;;;;;;;6214486;23;20198;-72
2021/12/07 09:29:49;;;;;;;2.55;1.15;;;;;;;;;;6214271;23;20202;-74
2021/12/07 09:32:17;;;;;;;4.18;1.30;;;;;;;;;;6214508;23;20603;-73
2021/12/07 09:34:44;;;;;;;2.65;1.30;;;;;;;;;;6214149;23;20209;-73
2021/12/07 09:37:12;;;;;;;3.47;1.60;;;;;;;;;;6214582;23;20190;-73
2021/12/07 09:39:39;;;;;;;3.35;1.67;;;;;;;;;;6214175;23;20171;-74
2021/12/07 09:42:08;;;;;;;3.60;1.40;;;;;;;;;;6214692;23;20190;-76
2021/12/07 09:44:36;;;;;;;2.35;1.25;;;;;;;;;;6214455;23;20173;-72
2021/12/07 09:47:04;;;;;;;2.72;1.65;;;;;;;;;;6214213;23;20167;-73
2021/12/07 09:49:31;;;;;;;5.43;1.70;;;;;;;;;;6214382;23;20169;-73
2021/12/07 09:51:59;;;;;;;4.75;1.30;;;;;;;;;;6214336;23;20221;-73
2021/12/07 09:54:26;;;;;;;4.43;1.45;;;;;;;;;;6214107;23;20258;-72
2021/12/07 09:56:59;;;;;;;5.50;1.58;;;;;;;;;;6213437;23;20171;-72
2021/12/07 09:59:29;;;;;;;3.17;1.42;;;;;;;;;;6213941;23;20217;-73
2021/12/07 10:01:57;;;;;;;4.40;1.63;;;;;;;;;;6213478;23;20205;-76
2021/12/07 10:04:27;;;;;;;3.17;1.30;;;;;;;;;;6214107;23;20630;-73
2021/12/07 10:06:59;;;;;;;2.30;1.30;;;;;;;;;;6213376;23;20155;-73
2021/12/07 10:09:27;;;;;;;2.10;1.20;;;;;;;;;;6214051;23;20158;-74
2021/12/07 10:11:56;;;;;;;4.47;1.30;;;;;;;;;;6213591;23;20254;-74
2021/12/07 10:14:24;;;;;;;2.35;1.55;;;;;;;;;;6214475;23;20368;-72
2021/12/07 10:16:53;;;;;;;2.15;1.30;;;;;;;;;;6215296;23;20250;-73
2021/12/07 10:19:34;;;;;;;3.38;1.35;;;;;;;;;;6216341;23;20213;-73
2021/12/07 10:22:03;;;;;;;2.60;1.20;;;;;;;;;;6216254;23;20281;-73
2021/12/07 10:24:37;;;;;;;2.25;1.38;;;;;;;;;;6215962;23;20163;-73
2021/12/07 10:27:05;;;;;;;2.30;1.52;;;;;;;;;;6216595;23;20228;-73
2021/12/07 10:29:35;;;;;;;3.13;1.67;;;;;;;;;;6216157;23;20167;-73
2021/12/07 10:32:07;;;;;;;3.60;2.10;;;;;;;;;;6216632;23;20186;-75
2021/12/07 10:34:36;;;;;;;2.45;1.27;;;;;;;;;;6215410;23;20159;-73
2021/12/07 10:37:10;;;;;;;3.53;1.58;;;;;;;;;;6216616;23;20217;-73
2021/12/07 10:39:39;;;;;;;2.83;1.38;;;;;;;;;;6215736;23;20186;-73
2021/12/07 10:42:08;;;;;;;5.35;1.52;;;;;;;;;;6216160;23;20194;-73
2021/12/07 10:44:36;;;;;;;3.38;1.70;;;;;;;;;;6216384;23;20174;-73
2021/12/07 10:47:06;;;;;;;2.40;1.50;;;;;;;;;;6215699;23;20634;-74
2021/12/07 10:49:36;;;;;;;3.33;1.55;;;;;;;;;;6216263;23;20170;-73
2021/12/07 10:52:21;;;;;;;2.40;1.45;;;;;;;;;;6215966;23;20213;-73
2021/12/07 10:55:03;;;;;;;8.13;2.60;;;;;;;;;;6215602;23;20705;-73
2021/12/07 10:57:32;;;;;;;2.90;1.52;;;;;;;;;;6216117;23;20158;-73
2021/12/07 11:00:08;;;;;;;1.83;1.05;;;;;;;;;;6215640;23;20167;-72
2021/12/07 11:02:38;;;;;;;6.07;1.55;;;;;;;;;;6215303;23;20247;-73
2021/12/07 11:05:08;;;;;;;3.03;1.55;;;;;;;;;;6216380;23;20159;-73
2021/12/07 11:07:36;;;;;;;3.95;1.48;;;;;;;;;;6215917;23;20171;-73
2021/12/07 11:10:10;;;;;;;3.00;1.70;;;;;;;;;;6216225;23;20185;-72
2021/12/07 11:12:47;;;;;;;3.45;1.52;;;;;;;;;;6216090;23;20464;-72
2021/12/07 11:15:22;;;;;;;2.78;1.30;;;;;;;;;;6215908;23;20158;-73
2021/12/07 11:17:52;;;;;;;2.17;1.38;;;;;;;;;;6216297;23;20151;-72
2021/12/07 11:20:19;;;;;;;3.65;1.75;;;;;;;;;;6216288;23;20198;-73
2021/12/07 11:22:50;;;;;;;3.75;2.00;;;;;;;;;;6215333;23;20193;-74
2021/12/07 11:25:42;;;;;;;4.05;1.52;;;;;;;;;;6215510;23;20155;-72
2021/12/07 11:31:11;;;;;;;3.72;2.05;;;;;;;;;;6215371;23;20194;-73
2021/12/07 11:33:41;;;;;;;2.50;1.30;;;;;;;;;;6215640;23;20234;-73
2021/12/07 11:36:16;;;;;;;2.50;1.50;;;;;;;;;;6215847;23;20466;-73
2021/12/07 11:38:43;;;;;;;2.70;1.30;;;;;;;;;;6215195;23;20155;-73
2021/12/07 11:41:20;;;;;;;3.40;1.85;;;;;;;;;;6214746;23;20167;-73
2021/12/07 11:43:59;;;;;;;2.88;1.67;;;;;;;;;;6214677;23;20273;-73
2021/12/07 11:46:29;;;;;;;2.25;1.20;;;;;;;;;;6215492;23;20225;-73
2021/12/07 11:49:12;;;;;;;4.35;1.33;;;;;;;;;;6215586;23;20151;-72
2021/12/07 11:51:40;;;;;;;2.20;1.20;;;;;;;;;;6214992;23;20205;-74
2021/12/07 11:54:09;;;;;;;2.75;1.23;;;;;;;;;;6215824;23;20245;-73
2021/12/07 11:56:37;;;;;;;4.90;1.98;;;;;;;;;;6215123;23;20170;-72
2021/12/07 11:59:06;;;;;;;2.75;1.65;;;;;;;;;;6214990;23;20560;-74
2021/12/07 12:01:34;;;;;;;3.03;1.20;;;;;;;;;;6214754;23;20167;-73
2021/12/07 12:04:02;;;;;;;9.55;1.88;;;;;;;;;;6215595;23;20230;-73
2021/12/07 12:06:31;;;;;;;2.25;1.02;;;;;;;;;;6215616;23;20229;-74
2021/12/07 12:08:59;;;;;;;2.78;1.50;;;;;;;;;;6215321;23;20249;-73
2021/12/07 12:11:33;;;;;;;3.25;1.65;;;;;;;;;;6215202;23;20167;-73
2021/12/07 12:14:13;;;;;;;8.02;1.45;;;;;;;;;;6215375;23;20149;-74
2021/12/07 12:16:58;;;;;;;3.55;1.35;;;;;;;;;;6214900;23;20159;-73
2021/12/07 12:19:30;;;;;;;2.97;1.00;;;;;;;;;;6215164;23;20187;-74
2021/12/07 12:22:02;;;;;;;3.15;1.88;;;;;;;;;;6214928;23;20156;-74
2021/12/07 12:24:34;;;;;;;3.72;1.85;;;;;;;;;;6215615;23;20160;-74
2021/12/07 12:27:07;;;;;;;3.17;0.95;;;;;;;;;;6215023;23;20155;-73
2021/12/07 12:29:35;;;;;;;2.67;1.20;;;;;;;;;;6214673;23;20615;-73
2021/12/07 12:32:04;;;;;;;2.55;1.25;;;;;;;;;;6214495;23;20430;-75
2021/12/07 12:34:34;;;;;;;3.17;1.70;;;;;;;;;;6215006;23;20167;-74
2021/12/07 12:37:08;;;;;;;4.70;1.55;;;;;;;;;;6214578;23;20174;-74
2021/12/07 12:39:56;;;;;;;5.55;1.80;;;;;;;;;;6215083;23;20474;-74
2021/12/07 12:42:31;;;;;;;3.25;1.10;;;;;;;;;;6205460;23;20191;-76
2021/12/07 12:45:01;;;;;;;2.40;1.02;;;;;;;;;;6214923;23;20155;-73
2021/12/07 12:47:30;;;;;;;6.63;1.52;;;;;;;;;;6214695;23;20151;-73
2021/12/07 12:49:57;;;;;;;2.67;1.20;;;;;;;;;;6215218;23;20163;-73
2021/12/07 12:52:47;;;;;;;4.20;1.67;;;;;;;;;;6214674;23;21439;-72
2021/12/07 12:55:48;;;;;;;2.58;1.55;;;;;;;;;;6215035;23;20155;-73
2021/12/07 12:58:18;;;;;;;4.85;1.27;;;;;;;;;;6214694;23;20159;-73
2021/12/07 13:01:09;;;;;;;2.30;1.20;;;;;;;;;;6214794;23;20206;-73
2021/12/07 13:03:52;;;;;;;3.58;1.25;;;;;;;;;;6215083;23;20183;-73
2021/12/07 13:06:21;;;;;;;2.80;1.20;;;;;;;;;;6191161;23;20173;-72
2021/12/07 13:09:00;;;;;;;2.65;1.60;;;;;;;;;;6215751;23;20213;-73
2021/12/07 13:11:36;;;;;;;2.65;1.17;;;;;;;;;;6214370;23;20166;-73
2021/12/07 13:14:05;;;;;;;2.80;1.63;;;;;;;;;;6214927;23;20536;-74
2021/12/07 13:16:33;;;;;;;2.60;1.13;;;;;;;;;;6214571;23;20167;-73
2021/12/07 13:19:02;;;;;;;2.55;1.35;;;;;;;;;;6214363;23;20171;-73
2021/12/07 13:21:30;;;;;;;2.42;1.40;;;;;;;;;;6214954;23;20186;-73
2021/12/07 13:24:00;;;;;;;2.70;1.25;;;;;;;;;;6214451;23;20187;-73
2021/12/07 13:26:27;;;;;;;6.55;1.33;;;;;;;;;;6214674;23;20668;-73
2021/12/07 13:29:06;;;;;;;3.60;1.15;;;;;;;;;;6214413;23;20167;-73
2021/12/07 13:31:38;;;;;;;3.65;0.75;;;;;;;;;;6214230;23;20237;-73
2021/12/07 13:34:06;;;;;;;3.15;1.10;;;;;;;;;;6214869;23;20163;-73
2021/12/07 13:36:35;;;;;;;3.08;1.20;;;;;;;;;;6214828;23;20217;-74
2021/12/07 13:39:23;;;;;;;2.13;0.95;;;;;;;;;;6214084;23;20637;-75
2021/12/07 13:41:57;;;;;;;5.75;1.35;;;;;;;;;;6214718;23;20170;-73
2021/12/07 13:44:26;;;;;;;3.63;0.98;;;;;;;;;;6214085;23;20179;-73
2021/12/07 13:46:57;;;;;;;2.97;1.00;;;;;;;;;;6214565;23;20163;-80
2021/12/07 13:49:25;;;;;;;2.75;1.13;;;;;;;;;;6215081;23;20488;-75
2021/12/07 13:51:53;;;;;;;4.40;1.10;;;;;;;;;;6214609;23;20167;-73
2021/12/07 13:54:22;;;;;;;4.00;1.60;;;;;;;;;;6214930;23;20237;-75
2021/12/07 13:56:53;;;;;;;5.53;2.05;;;;;;;;;;6214096;23;20167;-73
2021/12/07 13:59:23;;;;;;;5.05;1.85;;;;;;;;;;6215459;23;20159;-73
2021/12/07 14:01:52;;;;;;;4.35;1.80;;;;;;;;;;6214695;23;20167;-74
2021/12/07 14:04:26;;;;;;;2.60;1.40;;;;;;;;;;6213918;23;20187;-73
2021/12/07 14:06:54;;;;;;;8.13;1.15;;;;;;;;;;6214477;23;20154;-73
2021/12/07 14:09:22;;;;;;;4.32;1.35;;;;;;;;;;6214260;23;20245;-76
2021/12/07 14:11:54;;;;;;;1.90;1.00;;;;;;;;;;6214688;23;20167;-73
2021/12/07 14:14:23;;;;;;;2.03;1.25;;;;;;;;;;6213828;23;20167;-72
2021/12/07 14:16:51;;;;;;;5.07;1.25;;;;;;;;;;6214601;23;20521;-73
2021/12/07 14:19:19;;;;;;;3.28;1.63;;;;;;;;;;6214438;23;20163;-73
2021/12/07 14:21:47;;;;;;;4.53;1.55;;;;;;;;;;6214245;23;20504;-73
2021/12/07 14:24:19;;;;;;;3.35;2.00;;;;;;;;;;6213924;23;20191;-73
2021/12/07 14:26:47;;;;;;;4.75;3.13;;;;;;;;;;6214996;23;20238;-72
2021/12/07 14:29:21;;;;;;;7.88;3.00;;;;;;;;;;6213774;23;20656;-73
2021/12/07 14:31:52;;;;;;;3.22;2.38;;;;;;;;;;6213515;23;20198;-74
2021/12/07 14:34:22;;;;;;;6.82;3.05;;;;;;;;;;6214221;23;20151;-72
2021/12/07 14:36:51;;;;;;;4.95;3.53;;;;;;;;;;6214474;23;20155;-72
2021/12/07 14:39:21;;;;;;;5.03;2.25;;;;;;;;;;6214068;23;20170;-75
2021/12/07 14:41:49;;;;;;;3.90;1.70;;;;;;;;;;6214105;23;20238;-72
2021/12/07 14:44:17;;;;;;;2.90;1.63;;;;;;;;;;6214171;23;20190;-73
2021/12/07 14:46:46;;;;;;;4.07;1.90;;;;;;;;;;6214030;23;20182;-73
2021/12/07 14:49:16;;;;;;;3.97;1.80;;;;;;;;;;6214583;23;20167;-73
2021/12/07 14:51:45;;;;;;;3.75;1.92;;;;;;;;;;6214219;23;20249;-73
2021/12/07 14:54:16;;;;;;;6.90;2.40;;;;;;;;;;6214347;23;20171;-73
2021/12/07 14:56:44;;;;;;;4.95;2.20;;;;;;;;;;6213851;23;20634;-72
2021/12/07 14:59:13;;;;;;;4.75;2.30;;;;;;;;;;6214107;23;20171;-72
2021/12/07 15:01:42;;;;;;;4.03;2.00;;;;;;;;;;6213664;23;20703;-74
2021/12/07 15:04:10;;;;;;;3.70;1.95;;;;;;;;;;6215752;23;20559;-72
2021/12/07 15:06:42;;;;;;;4.32;2.25;;;;;;;;;;6216248;23;20163;-72
2021/12/07 15:09:10;;;;;;;3.60;2.42;;;;;;;;;;6215771;23;20627;-72
2021/12/07 15:11:38;;;;;;;4.95;2.10;;;;;;;;;;6215867;23;20217;-72
2021/12/07 15:14:10;;;;;;;4.78;2.15;;;;;;;;;;6215976;23;20162;-72
2021/12/07 15:16:38;;;;;;;4.32;2.22;;;;;;;;;;6216308;23;20209;-72
2021/12/07 15:19:07;;;;;;;6.03;2.05;;;;;;;;;;6215693;23;20171;-73
2021/12/07 15:21:35;;;;;;;3.58;2.15;;;;;;;;;;6216231;23;20171;-72
2021/12/07 15:24:07;;;;;;;6.97;2.85;;;;;;;;;;6215717;23;20190;-72
2021/12/07 15:26:35;;;;;;;4.38;1.88;;;;;;;;;;6214694;23;20171;-73
2021/12/07 15:29:06;;;;;;;3.05;1.70;;;;;;;;;;6215842;23;20163;-73
2021/12/07 15:31:39;;;;;;;7.43;3.28;;;;;;;;;;6215753;23;20194;-72
2021/12/07 15:34:10;;;;;;;6.95;3.20;;;;;;;;;;6215775;23;20157;-72
2021/12/07 15:36:45;;;;;;;8.70;3.25;;;;;;;;;;6216159;23;20167;-72
2021/12/07 15:39:17;;;;;;;6.15;3.55;;;;;;;;;;6215158;23;20154;-73
2021/12/07 15:41:49;;;;;;;6.30;4.20;;;;;;;;;;6216016;23;20482;-72
2021/12/07 15:44:18;;;;;;;8.80;4.38;;;;;;;;;;6215516;23;20187;-72
2021/12/07 15:46:51;;;;;;;6.35;3.65;;;;;;;;;;6215947;23;20266;-74
2021/12/07 15:49:24;;;;;;;32.00;19.65;;;;;;;;;;6215847;23;20162;-76
2021/12/07 15:51:56;;;;;;;41.33;25.38;;;;;;;;;;6215461;23;20170;-71
2021/12/07 15:54:27;;;;;;;29.20;18.33;;;;;;;;;;6214876;23;20159;-72
2021/12/07 15:57:00;;;;;;;25.65;13.80;;;;;;;;;;6215511;23;20198;-72
2021/12/07 15:59:31;;;;;;;21.63;13.13;;;;;;;;;;6215456;23;20186;-73
2021/12/07 16:02:01;;;;;;;29.75;17.15;;;;;;;;;;6215163;23;20162;-72
2021/12/07 16:04:38;;;;;;;20.60;13.50;;;;;;;;;;6214751;23;20515;-72
2021/12/07 16:07:19;;;;;;;20.60;12.68;;;;;;;;;;6215461;23;20459;-72
2021/12/07 16:09:48;;;;;;;33.20;18.88;;;;;;;;;;6215171;23;20155;-73
2021/12/07 16:12:17;;;;;;;21.40;14.57;;;;;;;;;;6215163;23;20174;-72
2021/12/07 16:14:49;;;;;;;20.65;12.43;;;;;;;;;;6213775;23;20194;-72
2021/12/07 16:17:23;;;;;;;19.00;12.27;;;;;;;;;;6215545;23;20599;-72
2021/12/07 16:19:51;;;;;;;16.23;9.75;;;;;;;;;;6214462;23;20154;-72
2021/12/07 16:22:19;;;;;;;17.75;10.43;;;;;;;;;;6214717;23;20174;-72
2021/12/07 16:24:51;;;;;;;16.55;8.50;;;;;;;;;;6214740;23;20186;-73
2021/12/07 16:27:19;;;;;;;17.13;9.15;;;;;;;;;;6215209;23;20576;-73
2021/12/07 16:29:47;;;;;;;13.75;8.25;;;;;;;;;;6214462;23;20174;-72